Assonet, Massachusetts
Current Conditions -  °F | °C
As of 4:52 PM on Thursday 23 Oct 2014 (Local Time) from KTAN Reporting Station
Light Rain Light Rain  
Wind Chill: 13°   Ceiling: 700
Heat Index: 13°   Visibility: 3mi
Dew Point: 12°   Wind: 9mph
Humidity: 90%   Direction: 10°N
Pressure: 29.54"   Gusts: 24mph
Location:  41.8°N, 71.07°W
Report Text: KTAN 232052Z AUTO 01008G21KT 340V050 3SM -RA BR BKN007 OVC011 13/12 A2954 RMK AO2 CIG 005V009 SLP005 P0006 60013 T01330117 53004
Loading
Personal Weather Stations






























Interactive Weather Map New forecast layout! Learn more

10-Day Weather Forecast

Advertisements
Track Severe Weather on mobile